sensor_id;sensor_type;location;lat;lon;timestamp;temperature;humidity
13721;DHT22;6932;51.438;5.470;2022-10-17T00:00:26;21.00;94.70
13721;DHT22;6932;51.438;5.470;2022-10-17T00:02:54;20.90;94.70
13721;DHT22;6932;51.438;5.470;2022-10-17T00:05:21;20.90;94.80
13721;DHT22;6932;51.438;5.470;2022-10-17T00:07:47;20.90;94.90
13721;DHT22;6932;51.438;5.470;2022-10-17T00:10:12;21.00;95.00
13721;DHT22;6932;51.438;5.470;2022-10-17T00:12:38;20.90;95.00
13721;DHT22;6932;51.438;5.470;2022-10-17T00:15:05;21.00;95.00
13721;DHT22;6932;51.438;5.470;2022-10-17T00:17:31;21.00;95.10
13721;DHT22;6932;51.438;5.470;2022-10-17T00:19:59;20.90;95.10
13721;DHT22;6932;51.438;5.470;2022-10-17T00:22:26;21.00;95.20
13721;DHT22;6932;51.438;5.470;2022-10-17T00:24:52;21.00;95.20
13721;DHT22;6932;51.438;5.470;2022-10-17T00:27:18;21.00;95.20
13721;DHT22;6932;51.438;5.470;2022-10-17T00:29:48;21.00;95.20
13721;DHT22;6932;51.438;5.470;2022-10-17T00:32:15;21.00;95.20
13721;DHT22;6932;51.438;5.470;2022-10-17T00:34:41;21.00;95.30
13721;DHT22;6932;51.438;5.470;2022-10-17T00:37:06;21.00;95.30
13721;DHT22;6932;51.438;5.470;2022-10-17T00:39:32;21.00;95.30
13721;DHT22;6932;51.438;5.470;2022-10-17T00:41:58;21.00;95.30
13721;DHT22;6932;51.438;5.470;2022-10-17T00:47:06;21.00;95.40
13721;DHT22;6932;51.438;5.470;2022-10-17T00:49:36;21.00;95.40
13721;DHT22;6932;51.438;5.470;2022-10-17T00:52:12;21.00;95.50
13721;DHT22;6932;51.438;5.470;2022-10-17T00:54:45;21.00;95.50
13721;DHT22;6932;51.438;5.470;2022-10-17T00:57:14;21.00;95.60
13721;DHT22;6932;51.438;5.470;2022-10-17T00:59:42;21.00;95.60
13721;DHT22;6932;51.438;5.470;2022-10-17T01:02:15;21.00;95.60
13721;DHT22;6932;51.438;5.470;2022-10-17T01:04:44;21.00;95.60
13721;DHT22;6932;51.438;5.470;2022-10-17T01:07:12;21.00;95.60
13721;DHT22;6932;51.438;5.470;2022-10-17T01:09:38;21.00;95.70
13721;DHT22;6932;51.438;5.470;2022-10-17T01:12:21;21.00;95.70
13721;DHT22;6932;51.438;5.470;2022-10-17T01:18:25;21.00;95.80
13721;DHT22;6932;51.438;5.470;2022-10-17T01:21:09;21.10;95.90
13721;DHT22;6932;51.438;5.470;2022-10-17T01:24:16;21.10;95.90
13721;DHT22;6932;51.438;5.470;2022-10-17T01:30:24;21.10;96.00
13721;DHT22;6932;51.438;5.470;2022-10-17T01:33:36;21.10;96.10
13721;DHT22;6932;51.438;5.470;2022-10-17T01:36:18;21.10;96.10
13721;DHT22;6932;51.438;5.470;2022-10-17T01:39:11;21.10;96.10
13721;DHT22;6932;51.438;5.470;2022-10-17T01:42:00;21.10;96.10
13721;DHT22;6932;51.438;5.470;2022-10-17T01:47:18;21.10;96.30
13721;DHT22;6932;51.438;5.470;2022-10-17T01:49:49;21.10;96.30
13721;DHT22;6932;51.438;5.470;2022-10-17T01:52:32;21.10;96.40
13721;DHT22;6932;51.438;5.470;2022-10-17T01:55:14;21.10;96.40
13721;DHT22;6932;51.438;5.470;2022-10-17T01:57:58;21.20;96.40
13721;DHT22;6932;51.438;5.470;2022-10-17T02:00:29;21.20;96.40
13721;DHT22;6932;51.438;5.470;2022-10-17T02:03:03;21.20;96.40
13721;DHT22;6932;51.438;5.470;2022-10-17T02:05:35;21.20;96.40
13721;DHT22;6932;51.438;5.470;2022-10-17T02:08:04;21.20;96.40
13721;DHT22;6932;51.438;5.470;2022-10-17T02:10:40;21.20;96.40
13721;DHT22;6932;51.438;5.470;2022-10-17T02:13:21;21.20;96.30
13721;DHT22;6932;51.438;5.470;2022-10-17T02:21:45;21.20;96.30
13721;DHT22;6932;51.438;5.470;2022-10-17T02:27:14;21.10;96.30
13721;DHT22;6932;51.438;5.470;2022-10-17T02:29:54;21.20;96.30
13721;DHT22;6932;51.438;5.470;2022-10-17T02:32:33;21.20;96.40
13721;DHT22;6932;51.438;5.470;2022-10-17T02:35:08;21.10;96.30
13721;DHT22;6932;51.438;5.470;2022-10-17T02:37:40;21.20;96.40
13721;DHT22;6932;51.438;5.470;2022-10-17T02:40:08;21.20;96.50
13721;DHT22;6932;51.438;5.470;2022-10-17T02:42:37;21.10;96.50
13721;DHT22;6932;51.438;5.470;2022-10-17T02:45:04;21.20;96.50
13721;DHT22;6932;51.438;5.470;2022-10-17T02:47:56;21.10;96.50
13721;DHT22;6932;51.438;5.470;2022-10-17T02:50:34;21.10;96.50
13721;DHT22;6932;51.438;5.470;2022-10-17T02:53:07;21.10;96.50
13721;DHT22;6932;51.438;5.470;2022-10-17T02:55:42;21.10;96.50
13721;DHT22;6932;51.438;5.470;2022-10-17T02:58:18;21.10;96.50
13721;DHT22;6932;51.438;5.470;2022-10-17T03:00:46;21.10;96.60
13721;DHT22;6932;51.438;5.470;2022-10-17T03:03:26;21.10;96.60
13721;DHT22;6932;51.438;5.470;2022-10-17T03:05:54;21.10;96.60
13721;DHT22;6932;51.438;5.470;2022-10-17T03:08:21;21.10;96.70
13721;DHT22;6932;51.438;5.470;2022-10-17T03:10:48;21.10;96.70
13721;DHT22;6932;51.438;5.470;2022-10-17T03:13:14;21.10;96.80
13721;DHT22;6932;51.438;5.470;2022-10-17T03:15:41;21.10;96.90
13721;DHT22;6932;51.438;5.470;2022-10-17T03:18:07;21.10;96.90
13721;DHT22;6932;51.438;5.470;2022-10-17T03:20:33;21.10;96.90
13721;DHT22;6932;51.438;5.470;2022-10-17T03:22:59;21.10;96.90
13721;DHT22;6932;51.438;5.470;2022-10-17T03:25:25;21.10;97.00
13721;DHT22;6932;51.438;5.470;2022-10-17T03:27:51;21.20;97.00
13721;DHT22;6932;51.438;5.470;2022-10-17T03:30:17;21.20;97.10
13721;DHT22;6932;51.438;5.470;2022-10-17T03:32:43;21.20;97.10
13721;DHT22;6932;51.438;5.470;2022-10-17T03:35:09;21.20;97.10
13721;DHT22;6932;51.438;5.470;2022-10-17T03:37:35;21.20;97.10
13721;DHT22;6932;51.438;5.470;2022-10-17T03:40:00;21.20;97.20
13721;DHT22;6932;51.438;5.470;2022-10-17T03:42:26;21.20;97.20
13721;DHT22;6932;51.438;5.470;2022-10-17T03:44:52;21.20;97.20
13721;DHT22;6932;51.438;5.470;2022-10-17T03:47:17;21.20;97.20
13721;DHT22;6932;51.438;5.470;2022-10-17T03:49:43;21.20;97.20
13721;DHT22;6932;51.438;5.470;2022-10-17T03:52:12;21.30;97.20
13721;DHT22;6932;51.438;5.470;2022-10-17T03:54:38;21.30;97.30
13721;DHT22;6932;51.438;5.470;2022-10-17T03:57:04;21.30;97.20
13721;DHT22;6932;51.438;5.470;2022-10-17T03:59:30;21.30;97.20
13721;DHT22;6932;51.438;5.470;2022-10-17T04:01:56;21.30;97.20
13721;DHT22;6932;51.438;5.470;2022-10-17T04:04:22;21.30;97.20
13721;DHT22;6932;51.438;5.470;2022-10-17T04:06:47;21.30;97.30
13721;DHT22;6932;51.438;5.470;2022-10-17T04:09:13;21.30;97.30
13721;DHT22;6932;51.438;5.470;2022-10-17T04:11:39;21.30;97.30
13721;DHT22;6932;51.438;5.470;2022-10-17T04:14:05;21.30;97.40
13721;DHT22;6932;51.438;5.470;2022-10-17T04:16:31;21.30;97.40
13721;DHT22;6932;51.438;5.470;2022-10-17T04:18:58;21.30;97.40
13721;DHT22;6932;51.438;5.470;2022-10-17T04:21:26;21.30;97.50
13721;DHT22;6932;51.438;5.470;2022-10-17T04:23:54;21.40;97.60
13721;DHT22;6932;51.438;5.470;2022-10-17T04:26:21;21.40;97.90
13721;DHT22;6932;51.438;5.470;2022-10-17T04:28:47;21.40;97.70
13721;DHT22;6932;51.438;5.470;2022-10-17T04:31:13;21.40;97.70
13721;DHT22;6932;51.438;5.470;2022-10-17T04:33:39;21.50;97.70
13721;DHT22;6932;51.438;5.470;2022-10-17T04:36:11;21.50;97.70
13721;DHT22;6932;51.438;5.470;2022-10-17T04:38:38;21.50;97.70
13721;DHT22;6932;51.438;5.470;2022-10-17T04:41:06;21.60;97.70
13721;DHT22;6932;51.438;5.470;2022-10-17T04:43:37;21.60;97.80
13721;DHT22;6932;51.438;5.470;2022-10-17T04:46:08;21.60;97.80
13721;DHT22;6932;51.438;5.470;2022-10-17T04:48:37;21.60;97.80
13721;DHT22;6932;51.438;5.470;2022-10-17T04:51:11;21.70;98.10
13721;DHT22;6932;51.438;5.470;2022-10-17T04:53:40;21.70;97.80
13721;DHT22;6932;51.438;5.470;2022-10-17T04:56:09;21.70;97.80
13721;DHT22;6932;51.438;5.470;2022-10-17T04:58:39;21.70;97.70
13721;DHT22;6932;51.438;5.470;2022-10-17T05:01:12;21.80;97.80
13721;DHT22;6932;51.438;5.470;2022-10-17T05:03:39;21.80;97.80
13721;DHT22;6932;51.438;5.470;2022-10-17T05:06:07;21.80;97.70
13721;DHT22;6932;51.438;5.470;2022-10-17T05:08:38;21.80;97.70
13721;DHT22;6932;51.438;5.470;2022-10-17T05:11:05;21.90;97.70
13721;DHT22;6932;51.438;5.470;2022-10-17T05:13:43;21.90;97.70
13721;DHT22;6932;51.438;5.470;2022-10-17T05:16:09;21.90;97.70
13721;DHT22;6932;51.438;5.470;2022-10-17T05:18:35;21.90;97.70
13721;DHT22;6932;51.438;5.470;2022-10-17T05:21:02;21.90;97.70
13721;DHT22;6932;51.438;5.470;2022-10-17T05:23:29;21.90;97.70
13721;DHT22;6932;51.438;5.470;2022-10-17T05:25:55;21.90;97.70
13721;DHT22;6932;51.438;5.470;2022-10-17T05:28:22;21.90;97.70
13721;DHT22;6932;51.438;5.470;2022-10-17T05:30:48;22.00;97.70
13721;DHT22;6932;51.438;5.470;2022-10-17T05:33:13;22.00;97.70
13721;DHT22;6932;51.438;5.470;2022-10-17T05:35:39;21.90;97.70
13721;DHT22;6932;51.438;5.470;2022-10-17T05:38:05;22.00;97.70
13721;DHT22;6932;51.438;5.470;2022-10-17T05:40:31;22.00;97.70
13721;DHT22;6932;51.438;5.470;2022-10-17T05:42:57;22.00;97.70
13721;DHT22;6932;51.438;5.470;2022-10-17T05:45:23;22.00;97.70
13721;DHT22;6932;51.438;5.470;2022-10-17T05:47:49;22.00;97.70
13721;DHT22;6932;51.438;5.470;2022-10-17T05:50:14;22.00;97.70
13721;DHT22;6932;51.438;5.470;2022-10-17T05:52:40;22.00;97.60
13721;DHT22;6932;51.438;5.470;2022-10-17T05:55:06;22.00;97.90
13721;DHT22;6932;51.438;5.470;2022-10-17T05:57:32;22.00;97.60
13721;DHT22;6932;51.438;5.470;2022-10-17T05:59:58;22.00;97.60
13721;DHT22;6932;51.438;5.470;2022-10-17T06:02:25;22.10;97.60
13721;DHT22;6932;51.438;5.470;2022-10-17T06:04:50;22.10;97.50
13721;DHT22;6932;51.438;5.470;2022-10-17T06:07:16;22.10;97.50
13721;DHT22;6932;51.438;5.470;2022-10-17T06:09:42;22.10;97.50
13721;DHT22;6932;51.438;5.470;2022-10-17T06:12:08;22.10;97.50
13721;DHT22;6932;51.438;5.470;2022-10-17T06:14:34;22.10;97.50
13721;DHT22;6932;51.438;5.470;2022-10-17T06:16:59;22.10;97.40
13721;DHT22;6932;51.438;5.470;2022-10-17T06:19:25;22.10;97.50
13721;DHT22;6932;51.438;5.470;2022-10-17T06:21:51;22.10;97.50
13721;DHT22;6932;51.438;5.470;2022-10-17T06:24:17;22.20;97.50
13721;DHT22;6932;51.438;5.470;2022-10-17T06:26:43;22.20;97.50
13721;DHT22;6932;51.438;5.470;2022-10-17T06:29:08;22.20;97.50
13721;DHT22;6932;51.438;5.470;2022-10-17T06:31:34;22.20;97.50
13721;DHT22;6932;51.438;5.470;2022-10-17T06:34:00;22.20;97.50
13721;DHT22;6932;51.438;5.470;2022-10-17T06:36:26;22.20;97.40
13721;DHT22;6932;51.438;5.470;2022-10-17T06:38:51;22.20;97.40
13721;DHT22;6932;51.438;5.470;2022-10-17T06:41:17;22.20;97.40
13721;DHT22;6932;51.438;5.470;2022-10-17T06:43:44;22.20;97.40
13721;DHT22;6932;51.438;5.470;2022-10-17T06:46:16;22.30;97.40
13721;DHT22;6932;51.438;5.470;2022-10-17T06:48:43;22.30;97.40
13721;DHT22;6932;51.438;5.470;2022-10-17T06:51:10;22.20;97.30
13721;DHT22;6932;51.438;5.470;2022-10-17T06:53:37;22.30;97.40
13721;DHT22;6932;51.438;5.470;2022-10-17T06:56:06;22.20;97.30
13721;DHT22;6932;51.438;5.470;2022-10-17T06:58:34;22.30;97.30
13721;DHT22;6932;51.438;5.470;2022-10-17T07:01:05;22.30;97.30
13721;DHT22;6932;51.438;5.470;2022-10-17T07:03:33;22.40;97.40
13721;DHT22;6932;51.438;5.470;2022-10-17T07:05:59;22.40;97.40
13721;DHT22;6932;51.438;5.470;2022-10-17T07:08:25;22.40;97.40
13721;DHT22;6932;51.438;5.470;2022-10-17T07:10:51;22.40;97.30
13721;DHT22;6932;51.438;5.470;2022-10-17T07:13:17;22.40;97.20
13721;DHT22;6932;51.438;5.470;2022-10-17T07:15:43;22.50;97.20
13721;DHT22;6932;51.438;5.470;2022-10-17T07:18:10;22.50;97.10
13721;DHT22;6932;51.438;5.470;2022-10-17T07:20:36;22.50;97.00
13721;DHT22;6932;51.438;5.470;2022-10-17T07:23:02;22.60;97.00
13721;DHT22;6932;51.438;5.470;2022-10-17T07:25:28;22.60;96.90
13721;DHT22;6932;51.438;5.470;2022-10-17T07:27:54;22.60;96.90
13721;DHT22;6932;51.438;5.470;2022-10-17T07:30:21;22.60;96.90
13721;DHT22;6932;51.438;5.470;2022-10-17T07:32:47;22.60;96.90
13721;DHT22;6932;51.438;5.470;2022-10-17T07:35:13;22.70;96.90
13721;DHT22;6932;51.438;5.470;2022-10-17T07:37:39;22.70;96.80
13721;DHT22;6932;51.438;5.470;2022-10-17T07:40:07;22.70;96.80
13721;DHT22;6932;51.438;5.470;2022-10-17T07:42:36;22.70;96.70
13721;DHT22;6932;51.438;5.470;2022-10-17T07:45:02;22.80;96.60
13721;DHT22;6932;51.438;5.470;2022-10-17T07:47:29;22.80;96.50
13721;DHT22;6932;51.438;5.470;2022-10-17T07:49:56;22.80;96.40
13721;DHT22;6932;51.438;5.470;2022-10-17T07:52:22;22.90;96.40
13721;DHT22;6932;51.438;5.470;2022-10-17T07:54:48;22.90;96.30
13721;DHT22;6932;51.438;5.470;2022-10-17T07:57:14;22.90;96.20
13721;DHT22;6932;51.438;5.470;2022-10-17T07:59:39;22.90;96.10
13721;DHT22;6932;51.438;5.470;2022-10-17T08:02:05;23.00;96.10
13721;DHT22;6932;51.438;5.470;2022-10-17T08:04:33;23.00;96.00
13721;DHT22;6932;51.438;5.470;2022-10-17T08:07:01;23.00;95.90
13721;DHT22;6932;51.438;5.470;2022-10-17T08:09:27;23.00;95.90
13721;DHT22;6932;51.438;5.470;2022-10-17T08:11:52;23.00;95.80
13721;DHT22;6932;51.438;5.470;2022-10-17T08:14:18;23.10;95.80
13721;DHT22;6932;51.438;5.470;2022-10-17T08:16:44;23.10;95.70
13721;DHT22;6932;51.438;5.470;2022-10-17T08:19:09;23.10;95.70
13721;DHT22;6932;51.438;5.470;2022-10-17T08:21:36;23.10;95.60
13721;DHT22;6932;51.438;5.470;2022-10-17T08:24:03;23.10;95.60
13721;DHT22;6932;51.438;5.470;2022-10-17T08:26:29;23.20;95.60
13721;DHT22;6932;51.438;5.470;2022-10-17T08:28:55;23.20;95.50
13721;DHT22;6932;51.438;5.470;2022-10-17T08:31:21;23.20;95.50
13721;DHT22;6932;51.438;5.470;2022-10-17T08:33:49;23.20;95.40
13721;DHT22;6932;51.438;5.470;2022-10-17T08:36:17;23.30;95.30
13721;DHT22;6932;51.438;5.470;2022-10-17T08:38:44;23.30;95.30
13721;DHT22;6932;51.438;5.470;2022-10-17T08:41:21;23.30;95.30
13721;DHT22;6932;51.438;5.470;2022-10-17T08:46:52;23.30;95.30
13721;DHT22;6932;51.438;5.470;2022-10-17T08:49:39;23.30;95.20
13721;DHT22;6932;51.438;5.470;2022-10-17T08:55:16;23.30;95.30
13721;DHT22;6932;51.438;5.470;2022-10-17T08:57:48;23.40;95.30
13721;DHT22;6932;51.438;5.470;2022-10-17T09:00:17;23.40;95.30
13721;DHT22;6932;51.438;5.470;2022-10-17T09:06:10;23.30;95.30
13721;DHT22;6932;51.438;5.470;2022-10-17T09:23:37;23.30;95.70
13721;DHT22;6932;51.438;5.470;2022-10-17T09:26:04;23.30;95.80
13721;DHT22;6932;51.438;5.470;2022-10-17T09:28:37;23.30;96.00
13721;DHT22;6932;51.438;5.470;2022-10-17T09:31:25;23.30;96.10
13721;DHT22;6932;51.438;5.470;2022-10-17T09:34:00;23.20;96.20
13721;DHT22;6932;51.438;5.470;2022-10-17T09:36:33;23.20;96.30
13721;DHT22;6932;51.438;5.470;2022-10-17T09:39:12;23.20;96.30
13721;DHT22;6932;51.438;5.470;2022-10-17T09:41:46;23.20;96.40
13721;DHT22;6932;51.438;5.470;2022-10-17T09:44:28;23.10;96.50
13721;DHT22;6932;51.438;5.470;2022-10-17T09:49:43;23.00;96.70
13721;DHT22;6932;51.438;5.470;2022-10-17T09:52:14;23.00;96.90
13721;DHT22;6932;51.438;5.470;2022-10-17T09:54:45;23.00;97.00
13721;DHT22;6932;51.438;5.470;2022-10-17T09:57:14;22.90;97.10
13721;DHT22;6932;51.438;5.470;2022-10-17T09:59:46;22.90;97.20
13721;DHT22;6932;51.438;5.470;2022-10-17T10:02:22;22.90;97.30
13721;DHT22;6932;51.438;5.470;2022-10-17T10:04:58;22.90;97.40
13721;DHT22;6932;51.438;5.470;2022-10-17T10:07:33;22.80;97.40
13721;DHT22;6932;51.438;5.470;2022-10-17T10:10:00;22.80;97.50
13721;DHT22;6932;51.438;5.470;2022-10-17T10:12:32;22.80;97.60
13721;DHT22;6932;51.438;5.470;2022-10-17T10:15:00;22.80;97.70
13721;DHT22;6932;51.438;5.470;2022-10-17T10:19:57;22.80;97.90
13721;DHT22;6932;51.438;5.470;2022-10-17T10:22:24;22.80;98.00
13721;DHT22;6932;51.438;5.470;2022-10-17T10:25:15;22.70;98.00
13721;DHT22;6932;51.438;5.470;2022-10-17T10:27:43;22.70;98.20
13721;DHT22;6932;51.438;5.470;2022-10-17T10:30:32;22.70;98.20
13721;DHT22;6932;51.438;5.470;2022-10-17T10:32:58;22.70;98.40
13721;DHT22;6932;51.438;5.470;2022-10-17T10:35:32;22.70;98.40
13721;DHT22;6932;51.438;5.470;2022-10-17T10:38:01;22.70;98.60
13721;DHT22;6932;51.438;5.470;2022-10-17T10:40:48;22.70;98.70
13721;DHT22;6932;51.438;5.470;2022-10-17T10:43:39;22.70;98.80
13721;DHT22;6932;51.438;5.470;2022-10-17T10:46:22;22.70;98.90
13721;DHT22;6932;51.438;5.470;2022-10-17T10:48:56;22.70;99.00
13721;DHT22;6932;51.438;5.470;2022-10-17T10:51:45;22.70;99.10
13721;DHT22;6932;51.438;5.470;2022-10-17T10:54:24;22.70;99.20
13721;DHT22;6932;51.438;5.470;2022-10-17T10:57:00;22.70;99.20
13721;DHT22;6932;51.438;5.470;2022-10-17T10:59:43;22.80;99.30
13721;DHT22;6932;51.438;5.470;2022-10-17T11:02:37;22.80;99.30
13721;DHT22;6932;51.438;5.470;2022-10-17T11:07:43;22.80;99.50
13721;DHT22;6932;51.438;5.470;2022-10-17T11:10:40;22.80;99.50
13721;DHT22;6932;51.438;5.470;2022-10-17T11:13:28;22.80;99.60
13721;DHT22;6932;51.438;5.470;2022-10-17T11:18:41;22.80;99.70
13721;DHT22;6932;51.438;5.470;2022-10-17T11:21:20;22.80;99.70
13721;DHT22;6932;51.438;5.470;2022-10-17T11:23:55;22.80;99.70
13721;DHT22;6932;51.438;5.470;2022-10-17T11:26:53;22.80;99.70
13721;DHT22;6932;51.438;5.470;2022-10-17T11:29:30;22.80;99.70
13721;DHT22;6932;51.438;5.470;2022-10-17T11:32:02;22.80;99.70
13721;DHT22;6932;51.438;5.470;2022-10-17T11:34:47;22.80;99.70
13721;DHT22;6932;51.438;5.470;2022-10-17T11:37:24;22.90;99.80
13721;DHT22;6932;51.438;5.470;2022-10-17T11:39:59;22.80;99.80
13721;DHT22;6932;51.438;5.470;2022-10-17T11:42:33;22.80;99.80
13721;DHT22;6932;51.438;5.470;2022-10-17T11:45:10;22.90;99.90
13721;DHT22;6932;51.438;5.470;2022-10-17T11:47:46;22.90;99.90
13721;DHT22;6932;51.438;5.470;2022-10-17T11:50:29;22.90;99.90
13721;DHT22;6932;51.438;5.470;2022-10-17T11:53:13;22.90;99.90
13721;DHT22;6932;51.438;5.470;2022-10-17T11:55:47;22.90;99.90
13721;DHT22;6932;51.438;5.470;2022-10-17T11:58:22;22.90;99.90
13721;DHT22;6932;51.438;5.470;2022-10-17T12:12:27;22.90;99.90
13721;DHT22;6932;51.438;5.470;2022-10-17T12:17:52;22.90;99.90
13721;DHT22;6932;51.438;5.470;2022-10-17T12:20:36;22.90;99.90
13721;DHT22;6932;51.438;5.470;2022-10-17T12:23:29;22.90;99.90
13721;DHT22;6932;51.438;5.470;2022-10-17T12:26:01;22.90;99.90
13721;DHT22;6932;51.438;5.470;2022-10-17T12:28:45;22.90;99.90
13721;DHT22;6932;51.438;5.470;2022-10-17T12:33:48;22.90;99.90
13721;DHT22;6932;51.438;5.470;2022-10-17T12:49:41;23.00;99.90
13721;DHT22;6932;51.438;5.470;2022-10-17T13:00:15;23.10;99.90
13721;DHT22;6932;51.438;5.470;2022-10-17T13:02:44;23.10;99.90
13721;DHT22;6932;51.438;5.470;2022-10-17T13:05:20;23.10;99.90
13721;DHT22;6932;51.438;5.470;2022-10-17T13:07:58;23.10;99.90
13721;DHT22;6932;51.438;5.470;2022-10-17T13:10:28;23.10;99.90
13721;DHT22;6932;51.438;5.470;2022-10-17T13:13:16;23.20;99.90
13721;DHT22;6932;51.438;5.470;2022-10-17T13:15:53;23.20;99.90
13721;DHT22;6932;51.438;5.470;2022-10-17T13:18:24;23.20;99.90
13721;DHT22;6932;51.438;5.470;2022-10-17T13:23:39;23.20;99.90
13721;DHT22;6932;51.438;5.470;2022-10-17T13:28:42;23.20;99.90
13721;DHT22;6932;51.438;5.470;2022-10-17T13:31:37;23.30;99.90
13721;DHT22;6932;51.438;5.470;2022-10-17T13:34:12;23.20;99.90
13721;DHT22;6932;51.438;5.470;2022-10-17T13:36:41;23.30;99.90
13721;DHT22;6932;51.438;5.470;2022-10-17T13:39:12;23.30;99.90
13721;DHT22;6932;51.438;5.470;2022-10-17T13:41:40;23.30;99.90
13721;DHT22;6932;51.438;5.470;2022-10-17T13:44:16;23.30;99.90
13721;DHT22;6932;51.438;5.470;2022-10-17T13:46:44;23.30;99.90
13721;DHT22;6932;51.438;5.470;2022-10-17T13:49:25;23.30;99.90
13721;DHT22;6932;51.438;5.470;2022-10-17T13:51:57;23.30;99.90
13721;DHT22;6932;51.438;5.470;2022-10-17T13:54:31;23.30;99.90
13721;DHT22;6932;51.438;5.470;2022-10-17T13:57:00;23.30;99.90
13721;DHT22;6932;51.438;5.470;2022-10-17T13:59:33;23.30;99.90
13721;DHT22;6932;51.438;5.470;2022-10-17T14:02:03;23.30;99.90
13721;DHT22;6932;51.438;5.470;2022-10-17T14:04:30;23.30;99.90
13721;DHT22;6932;51.438;5.470;2022-10-17T14:06:55;23.30;99.90
13721;DHT22;6932;51.438;5.470;2022-10-17T14:09:28;23.30;99.90
13721;DHT22;6932;51.438;5.470;2022-10-17T14:12:07;23.30;99.90
13721;DHT22;6932;51.438;5.470;2022-10-17T14:14:38;23.30;99.90
13721;DHT22;6932;51.438;5.470;2022-10-17T14:17:25;23.30;99.90
13721;DHT22;6932;51.438;5.470;2022-10-17T14:19:58;23.30;99.90
13721;DHT22;6932;51.438;5.470;2022-10-17T14:22:28;23.30;99.90
13721;DHT22;6932;51.438;5.470;2022-10-17T14:24:58;23.30;99.90
13721;DHT22;6932;51.438;5.470;2022-10-17T14:27:33;23.30;99.90
13721;DHT22;6932;51.438;5.470;2022-10-17T14:30:03;23.30;99.90
13721;DHT22;6932;51.438;5.470;2022-10-17T14:32:33;23.30;99.90
13721;DHT22;6932;51.438;5.470;2022-10-17T14:35:03;23.30;99.90
13721;DHT22;6932;51.438;5.470;2022-10-17T14:40:00;23.30;99.90
13721;DHT22;6932;51.438;5.470;2022-10-17T14:42:28;23.30;99.90
13721;DHT22;6932;51.438;5.470;2022-10-17T14:45:04;23.30;99.90
13721;DHT22;6932;51.438;5.470;2022-10-17T14:47:32;23.30;99.90
13721;DHT22;6932;51.438;5.470;2022-10-17T14:50:05;23.30;99.90
13721;DHT22;6932;51.438;5.470;2022-10-17T14:52:58;23.30;99.90
13721;DHT22;6932;51.438;5.470;2022-10-17T14:55:33;23.20;99.80
13721;DHT22;6932;51.438;5.470;2022-10-17T14:58:00;23.30;99.80
13721;DHT22;6932;51.438;5.470;2022-10-17T15:00:26;23.30;99.80
13721;DHT22;6932;51.438;5.470;2022-10-17T15:02:53;23.20;99.80
13721;DHT22;6932;51.438;5.470;2022-10-17T15:05:20;23.20;99.80
13721;DHT22;6932;51.438;5.470;2022-10-17T15:07:47;23.30;99.80
13721;DHT22;6932;51.438;5.470;2022-10-17T15:10:33;23.20;99.70
13721;DHT22;6932;51.438;5.470;2022-10-17T15:13:01;23.20;99.80
13721;DHT22;6932;51.438;5.470;2022-10-17T15:15:28;23.20;99.80
13721;DHT22;6932;51.438;5.470;2022-10-17T15:17:55;23.20;99.80
13721;DHT22;6932;51.438;5.470;2022-10-17T15:20:21;23.20;99.80
13721;DHT22;6932;51.438;5.470;2022-10-17T15:22:54;23.30;99.80
13721;DHT22;6932;51.438;5.470;2022-10-17T15:25:24;23.20;99.80
13721;DHT22;6932;51.438;5.470;2022-10-17T15:27:51;23.30;99.80
13721;DHT22;6932;51.438;5.470;2022-10-17T15:30:29;23.30;99.80
13721;DHT22;6932;51.438;5.470;2022-10-17T15:32:57;23.20;99.70
13721;DHT22;6932;51.438;5.470;2022-10-17T15:35:24;23.30;99.80
13721;DHT22;6932;51.438;5.470;2022-10-17T15:37:51;23.30;99.80
13721;DHT22;6932;51.438;5.470;2022-10-17T15:40:25;23.30;99.70
13721;DHT22;6932;51.438;5.470;2022-10-17T15:42:54;23.20;99.70
13721;DHT22;6932;51.438;5.470;2022-10-17T15:45:20;23.30;99.70
13721;DHT22;6932;51.438;5.470;2022-10-17T15:47:56;23.20;99.80
13721;DHT22;6932;51.438;5.470;2022-10-17T15:50:28;23.20;99.80
13721;DHT22;6932;51.438;5.470;2022-10-17T15:52:55;23.30;99.80
13721;DHT22;6932;51.438;5.470;2022-10-17T15:55:21;23.30;99.80
13721;DHT22;6932;51.438;5.470;2022-10-17T15:57:47;23.30;99.70
13721;DHT22;6932;51.438;5.470;2022-10-17T16:00:22;23.30;99.70
13721;DHT22;6932;51.438;5.470;2022-10-17T16:02:49;23.30;99.70
13721;DHT22;6932;51.438;5.470;2022-10-17T16:05:23;23.30;99.70
13721;DHT22;6932;51.438;5.470;2022-10-17T16:07:51;23.30;99.60
13721;DHT22;6932;51.438;5.470;2022-10-17T16:10:18;23.30;99.50
13721;DHT22;6932;51.438;5.470;2022-10-17T16:12:45;23.30;99.50
13721;DHT22;6932;51.438;5.470;2022-10-17T16:15:22;23.30;99.50
13721;DHT22;6932;51.438;5.470;2022-10-17T16:17:50;23.20;99.50
13721;DHT22;6932;51.438;5.470;2022-10-17T16:20:18;23.30;99.50
13721;DHT22;6932;51.438;5.470;2022-10-17T16:22:45;23.30;99.50
13721;DHT22;6932;51.438;5.470;2022-10-17T16:25:23;23.30;99.50
13721;DHT22;6932;51.438;5.470;2022-10-17T16:27:54;23.30;99.40
13721;DHT22;6932;51.438;5.470;2022-10-17T16:30:24;23.30;99.30
13721;DHT22;6932;51.438;5.470;2022-10-17T16:32:54;23.30;99.30
13721;DHT22;6932;51.438;5.470;2022-10-17T16:35:27;23.20;99.20
13721;DHT22;6932;51.438;5.470;2022-10-17T16:37:54;23.20;99.20
13721;DHT22;6932;51.438;5.470;2022-10-17T16:40:21;23.20;99.20
13721;DHT22;6932;51.438;5.470;2022-10-17T16:42:47;23.20;99.20
13721;DHT22;6932;51.438;5.470;2022-10-17T16:45:18;23.20;99.20
13721;DHT22;6932;51.438;5.470;2022-10-17T16:47:47;23.20;99.20
13721;DHT22;6932;51.438;5.470;2022-10-17T16:50:15;23.20;99.20
13721;DHT22;6932;51.438;5.470;2022-10-17T16:52:41;23.20;99.20
13721;DHT22;6932;51.438;5.470;2022-10-17T16:55:07;23.20;99.10
13721;DHT22;6932;51.438;5.470;2022-10-17T16:57:34;23.10;99.10
13721;DHT22;6932;51.438;5.470;2022-10-17T17:00:00;23.10;99.20
13721;DHT22;6932;51.438;5.470;2022-10-17T17:02:27;23.10;99.20
13721;DHT22;6932;51.438;5.470;2022-10-17T17:04:53;23.10;99.20
13721;DHT22;6932;51.438;5.470;2022-10-17T17:07:18;23.10;99.20
13721;DHT22;6932;51.438;5.470;2022-10-17T17:09:46;23.10;99.20
13721;DHT22;6932;51.438;5.470;2022-10-17T17:12:12;23.10;99.20
13721;DHT22;6932;51.438;5.470;2022-10-17T17:14:38;23.10;99.20
13721;DHT22;6932;51.438;5.470;2022-10-17T17:17:03;23.10;99.20
13721;DHT22;6932;51.438;5.470;2022-10-17T17:19:29;23.10;99.10
13721;DHT22;6932;51.438;5.470;2022-10-17T17:21:55;23.10;99.10
13721;DHT22;6932;51.438;5.470;2022-10-17T17:24:21;23.10;99.10
13721;DHT22;6932;51.438;5.470;2022-10-17T17:26:54;23.00;99.10
13721;DHT22;6932;51.438;5.470;2022-10-17T17:29:21;23.00;99.00
13721;DHT22;6932;51.438;5.470;2022-10-17T17:31:48;23.00;99.00
13721;DHT22;6932;51.438;5.470;2022-10-17T17:34:14;23.00;99.10
13721;DHT22;6932;51.438;5.470;2022-10-17T17:36:40;22.90;99.10
13721;DHT22;6932;51.438;5.470;2022-10-17T17:39:10;22.90;99.10
13721;DHT22;6932;51.438;5.470;2022-10-17T17:41:36;22.90;99.10
13721;DHT22;6932;51.438;5.470;2022-10-17T17:44:04;22.90;99.20
13721;DHT22;6932;51.438;5.470;2022-10-17T17:46:30;22.90;99.20
13721;DHT22;6932;51.438;5.470;2022-10-17T17:48:57;22.90;99.30